sensor_id;sensor_type;location;lat;lon;timestamp;pressure;altitude;pressure_sealevel;temperature;humidity
35848;BME280;22332;51.954;20.118;2022-09-09T00:00:19;99819.19;;;13.89;67.78
35848;BME280;22332;51.954;20.118;2022-09-09T00:03:49;99819.10;;;13.91;67.95
35848;BME280;22332;51.954;20.118;2022-09-09T00:07:13;99818.77;;;13.94;68.02
35848;BME280;22332;51.954;20.118;2022-09-09T00:10:26;99821.73;;;13.93;68.34
35848;BME280;22332;51.954;20.118;2022-09-09T00:13:36;99825.48;;;13.94;68.11
35848;BME280;22332;51.954;20.118;2022-09-09T00:16:47;99830.48;;;13.92;68.52
35848;BME280;22332;51.954;20.118;2022-09-09T00:19:58;99823.64;;;13.89;68.63
35848;BME280;22332;51.954;20.118;2022-09-09T00:23:14;99816.58;;;13.88;68.74
35848;BME280;22332;51.954;20.118;2022-09-09T00:26:24;99815.44;;;13.92;68.73
35848;BME280;22332;51.954;20.118;2022-09-09T00:29:41;99811.05;;;13.94;68.97
35848;BME280;22332;51.954;20.118;2022-09-09T00:32:49;99813.55;;;13.93;69.05
35848;BME280;22332;51.954;20.118;2022-09-09T00:35:57;99811.06;;;13.92;69.18
35848;BME280;22332;51.954;20.118;2022-09-09T00:39:04;99813.35;;;13.90;69.10
35848;BME280;22332;51.954;20.118;2022-09-09T00:42:16;99813.66;;;13.86;69.47
35848;BME280;22332;51.954;20.118;2022-09-09T00:45:37;99821.10;;;13.81;69.53
35848;BME280;22332;51.954;20.118;2022-09-09T00:48:54;99826.27;;;13.82;69.71
35848;BME280;22332;51.954;20.118;2022-09-09T00:52:13;99825.52;;;13.84;69.81
35848;BME280;22332;51.954;20.118;2022-09-09T00:55:28;99827.80;;;13.84;69.87
35848;BME280;22332;51.954;20.118;2022-09-09T00:58:38;99820.43;;;13.86;69.75
35848;BME280;22332;51.954;20.118;2022-09-09T01:01:44;99815.78;;;13.87;69.79
35848;BME280;22332;51.954;20.118;2022-09-09T01:04:49;99811.89;;;13.86;69.91
35848;BME280;22332;51.954;20.118;2022-09-09T01:07:55;99818.71;;;13.84;70.15
35848;BME280;22332;51.954;20.118;2022-09-09T01:11:03;99821.75;;;13.86;70.14
35848;BME280;22332;51.954;20.118;2022-09-09T01:14:16;99824.28;;;13.87;70.41
35848;BME280;22332;51.954;20.118;2022-09-09T01:17:28;99827.47;;;13.88;70.53
35848;BME280;22332;51.954;20.118;2022-09-09T01:20:49;99827.70;;;13.89;70.43
35848;BME280;22332;51.954;20.118;2022-09-09T01:24:12;99829.82;;;13.87;70.57
35848;BME280;22332;51.954;20.118;2022-09-09T01:27:31;99833.57;;;13.85;70.82
35848;BME280;22332;51.954;20.118;2022-09-09T01:30:40;99832.45;;;13.84;70.92
35848;BME280;22332;51.954;20.118;2022-09-09T01:33:48;99827.81;;;13.86;71.02
35848;BME280;22332;51.954;20.118;2022-09-09T01:36:59;99828.42;;;13.88;70.98
35848;BME280;22332;51.954;20.118;2022-09-09T01:40:06;99826.41;;;13.91;71.06
35848;BME280;22332;51.954;20.118;2022-09-09T01:43:12;99823.08;;;13.92;71.33
35848;BME280;22332;51.954;20.118;2022-09-09T01:46:19;99827.05;;;13.90;71.37
35848;BME280;22332;51.954;20.118;2022-09-09T01:49:27;99825.30;;;13.89;71.45
35848;BME280;22332;51.954;20.118;2022-09-09T01:52:35;99827.91;;;13.86;71.47
35848;BME280;22332;51.954;20.118;2022-09-09T01:55:48;99825.98;;;13.85;71.81
35848;BME280;22332;51.954;20.118;2022-09-09T01:59:07;99823.48;;;13.86;71.66
35848;BME280;22332;51.954;20.118;2022-09-09T02:02:19;99817.51;;;13.89;71.90
35848;BME280;22332;51.954;20.118;2022-09-09T02:05:37;99815.94;;;13.92;71.96
35848;BME280;22332;51.954;20.118;2022-09-09T02:08:52;99811.80;;;13.94;72.07
35848;BME280;22332;51.954;20.118;2022-09-09T02:12:02;99816.56;;;13.92;72.21
35848;BME280;22332;51.954;20.118;2022-09-09T02:15:22;99820.43;;;13.89;72.14
35848;BME280;22332;51.954;20.118;2022-09-09T02:18:32;99822.02;;;13.88;72.44
35848;BME280;22332;51.954;20.118;2022-09-09T02:21:41;99822.98;;;13.89;72.42
35848;BME280;22332;51.954;20.118;2022-09-09T02:24:48;99826.77;;;13.91;72.72
35848;BME280;22332;51.954;20.118;2022-09-09T02:28:03;99827.10;;;13.94;72.76
35848;BME280;22332;51.954;20.118;2022-09-09T02:31:10;99827.33;;;13.96;72.84
35848;BME280;22332;51.954;20.118;2022-09-09T02:34:19;99827.02;;;13.94;72.82
35848;BME280;22332;51.954;20.118;2022-09-09T02:37:31;99828.33;;;13.93;72.77
35848;BME280;22332;51.954;20.118;2022-09-09T02:40:39;99830.36;;;13.91;73.03
35848;BME280;22332;51.954;20.118;2022-09-09T02:43:45;99825.58;;;13.91;72.97
35848;BME280;22332;51.954;20.118;2022-09-09T02:47:05;99826.06;;;13.93;73.05
35848;BME280;22332;51.954;20.118;2022-09-09T02:50:16;99828.16;;;13.96;73.17
35848;BME280;22332;51.954;20.118;2022-09-09T02:53:27;99831.13;;;13.97;73.25
35848;BME280;22332;51.954;20.118;2022-09-09T02:56:38;99833.56;;;13.96;73.45
35848;BME280;22332;51.954;20.118;2022-09-09T02:59:46;99831.56;;;13.94;73.47
35848;BME280;22332;51.954;20.118;2022-09-09T03:02:52;99834.83;;;13.94;73.44
35848;BME280;22332;51.954;20.118;2022-09-09T03:05:58;99837.59;;;13.95;73.64
35848;BME280;22332;51.954;20.118;2022-09-09T03:09:05;99839.73;;;13.95;73.76
35848;BME280;22332;51.954;20.118;2022-09-09T03:12:12;99837.45;;;13.96;73.62
35848;BME280;22332;51.954;20.118;2022-09-09T03:15:20;99840.26;;;13.97;73.91
35848;BME280;22332;51.954;20.118;2022-09-09T03:18:26;99839.81;;;13.97;73.94
35848;BME280;22332;51.954;20.118;2022-09-09T03:21:32;99836.29;;;13.96;73.87
35848;BME280;22332;51.954;20.118;2022-09-09T03:24:38;99839.06;;;13.93;74.17
35848;BME280;22332;51.954;20.118;2022-09-09T03:27:43;99839.34;;;13.92;74.39
35848;BME280;22332;51.954;20.118;2022-09-09T03:30:50;99835.88;;;13.96;74.30
35848;BME280;22332;51.954;20.118;2022-09-09T03:33:59;99833.83;;;13.99;74.40
35848;BME280;22332;51.954;20.118;2022-09-09T03:37:06;99832.91;;;14.03;74.35
35848;BME280;22332;51.954;20.118;2022-09-09T03:40:13;99831.47;;;14.03;74.44
35848;BME280;22332;51.954;20.118;2022-09-09T03:43:21;99835.61;;;14.01;74.54
35848;BME280;22332;51.954;20.118;2022-09-09T03:46:29;99842.98;;;13.99;74.54
35848;BME280;22332;51.954;20.118;2022-09-09T03:49:36;99846.14;;;13.98;74.84
35848;BME280;22332;51.954;20.118;2022-09-09T03:52:42;99846.98;;;14.02;74.80
35848;BME280;22332;51.954;20.118;2022-09-09T03:55:55;99848.60;;;14.06;74.83
35848;BME280;22332;51.954;20.118;2022-09-09T03:59:04;99841.83;;;14.06;74.83
35848;BME280;22332;51.954;20.118;2022-09-09T04:02:10;99841.20;;;14.05;75.07
35848;BME280;22332;51.954;20.118;2022-09-09T04:05:16;99843.36;;;14.03;75.07
35848;BME280;22332;51.954;20.118;2022-09-09T04:08:23;99849.66;;;14.02;75.21
35848;BME280;22332;51.954;20.118;2022-09-09T04:11:29;99851.85;;;14.03;75.43
35848;BME280;22332;51.954;20.118;2022-09-09T04:14:36;99856.53;;;14.04;75.40
35848;BME280;22332;51.954;20.118;2022-09-09T04:17:43;99851.23;;;14.02;75.51
35848;BME280;22332;51.954;20.118;2022-09-09T04:20:49;99852.66;;;14.05;75.63
35848;BME280;22332;51.954;20.118;2022-09-09T04:23:57;99855.04;;;14.06;75.70
35848;BME280;22332;51.954;20.118;2022-09-09T04:27:04;99857.46;;;14.05;75.87
35848;BME280;22332;51.954;20.118;2022-09-09T04:30:12;99858.80;;;14.04;75.80
35848;BME280;22332;51.954;20.118;2022-09-09T04:33:19;99859.85;;;14.05;75.89
35848;BME280;22332;51.954;20.118;2022-09-09T04:36:26;99855.08;;;14.09;75.76
35848;BME280;22332;51.954;20.118;2022-09-09T04:39:35;99857.02;;;14.12;75.91
35848;BME280;22332;51.954;20.118;2022-09-09T04:42:41;99857.19;;;14.15;76.14
35848;BME280;22332;51.954;20.118;2022-09-09T04:45:51;99860.77;;;14.16;76.20
35848;BME280;22332;51.954;20.118;2022-09-09T04:48:58;99861.33;;;14.16;76.30
35848;BME280;22332;51.954;20.118;2022-09-09T04:52:06;99866.25;;;14.17;76.35
35848;BME280;22332;51.954;20.118;2022-09-09T04:55:13;99871.48;;;14.20;76.38
35848;BME280;22332;51.954;20.118;2022-09-09T04:58:20;99869.17;;;14.22;76.54
35848;BME280;22332;51.954;20.118;2022-09-09T05:01:28;99866.59;;;14.24;76.44
35848;BME280;22332;51.954;20.118;2022-09-09T05:04:38;99863.30;;;14.25;76.52
35848;BME280;22332;51.954;20.118;2022-09-09T05:07:44;99861.55;;;14.27;76.65
35848;BME280;22332;51.954;20.118;2022-09-09T05:10:51;99863.66;;;14.28;76.59
35848;BME280;22332;51.954;20.118;2022-09-09T05:13:57;99867.70;;;14.27;76.83
35848;BME280;22332;51.954;20.118;2022-09-09T05:17:03;99864.47;;;14.27;76.92
35848;BME280;22332;51.954;20.118;2022-09-09T05:20:10;99865.35;;;14.33;76.99
35848;BME280;22332;51.954;20.118;2022-09-09T05:23:16;99860.95;;;14.38;76.72
35848;BME280;22332;51.954;20.118;2022-09-09T05:26:22;99861.55;;;14.44;76.81
35848;BME280;22332;51.954;20.118;2022-09-09T05:29:29;99863.91;;;14.48;76.97
35848;BME280;22332;51.954;20.118;2022-09-09T05:32:37;99862.77;;;14.52;77.33
35848;BME280;22332;51.954;20.118;2022-09-09T05:35:43;99866.84;;;14.59;77.28
35848;BME280;22332;51.954;20.118;2022-09-09T05:38:49;99869.31;;;14.69;77.32
35848;BME280;22332;51.954;20.118;2022-09-09T05:41:54;99869.41;;;14.78;77.29
35848;BME280;22332;51.954;20.118;2022-09-09T05:45:01;99871.41;;;14.83;77.33
35848;BME280;22332;51.954;20.118;2022-09-09T05:48:06;99876.69;;;14.87;77.42
35848;BME280;22332;51.954;20.118;2022-09-09T05:51:14;99879.45;;;14.89;77.40
35848;BME280;22332;51.954;20.118;2022-09-09T05:54:22;99884.95;;;14.92;77.51
35848;BME280;22332;51.954;20.118;2022-09-09T05:57:29;99881.73;;;14.99;77.53
35848;BME280;22332;51.954;20.118;2022-09-09T06:00:35;99883.52;;;15.04;77.54
35848;BME280;22332;51.954;20.118;2022-09-09T06:03:43;99883.39;;;15.11;77.54
35848;BME280;22332;51.954;20.118;2022-09-09T06:06:49;99885.35;;;15.18;77.46
35848;BME280;22332;51.954;20.118;2022-09-09T06:09:56;99888.92;;;15.23;77.49
35848;BME280;22332;51.954;20.118;2022-09-09T06:13:03;99890.23;;;15.22;77.78
35848;BME280;22332;51.954;20.118;2022-09-09T06:16:09;99889.02;;;15.23;77.39
35848;BME280;22332;51.954;20.118;2022-09-09T06:19:17;99891.15;;;15.27;77.51
35848;BME280;22332;51.954;20.118;2022-09-09T06:22:25;99893.30;;;15.36;77.53
35848;BME280;22332;51.954;20.118;2022-09-09T06:25:31;99893.25;;;15.40;77.73
35848;BME280;22332;51.954;20.118;2022-09-09T06:28:39;99894.20;;;15.40;77.57
35848;BME280;22332;51.954;20.118;2022-09-09T06:31:47;99893.61;;;15.44;77.83
35848;BME280;22332;51.954;20.118;2022-09-09T06:34:56;99894.20;;;15.50;77.78
35848;BME280;22332;51.954;20.118;2022-09-09T06:38:02;99896.69;;;15.62;77.72
35848;BME280;22332;51.954;20.118;2022-09-09T06:41:10;99893.16;;;15.73;77.82
35848;BME280;22332;51.954;20.118;2022-09-09T06:44:17;99896.27;;;15.84;77.86
35848;BME280;22332;51.954;20.118;2022-09-09T06:47:23;99896.69;;;15.96;77.70
35848;BME280;22332;51.954;20.118;2022-09-09T06:50:29;99897.73;;;16.03;77.62
35848;BME280;22332;51.954;20.118;2022-09-09T06:53:35;99902.77;;;16.07;77.73
35848;BME280;22332;51.954;20.118;2022-09-09T06:56:42;99903.02;;;16.11;77.96
35848;BME280;22332;51.954;20.118;2022-09-09T06:59:55;99902.27;;;16.21;77.78
35848;BME280;22332;51.954;20.118;2022-09-09T07:03:00;99903.05;;;16.34;77.89
35848;BME280;22332;51.954;20.118;2022-09-09T07:06:08;99903.27;;;16.47;77.89
35848;BME280;22332;51.954;20.118;2022-09-09T07:09:17;99908.81;;;16.57;77.66
35848;BME280;22332;51.954;20.118;2022-09-09T07:12:24;99911.96;;;16.57;77.77
35848;BME280;22332;51.954;20.118;2022-09-09T07:15:34;99911.92;;;16.56;77.94
35848;BME280;22332;51.954;20.118;2022-09-09T07:18:40;99919.63;;;16.58;78.06
35848;BME280;22332;51.954;20.118;2022-09-09T07:21:46;99924.13;;;16.61;78.14
35848;BME280;22332;51.954;20.118;2022-09-09T07:24:53;99926.48;;;16.67;78.11
35848;BME280;22332;51.954;20.118;2022-09-09T07:27:59;99928.65;;;16.74;78.25
35848;BME280;22332;51.954;20.118;2022-09-09T07:31:05;99930.38;;;16.81;78.03
35848;BME280;22332;51.954;20.118;2022-09-09T07:34:12;99938.60;;;16.86;78.03
35848;BME280;22332;51.954;20.118;2022-09-09T07:37:18;99938.90;;;16.86;78.04
35848;BME280;22332;51.954;20.118;2022-09-09T07:40:25;99939.20;;;16.92;78.04
35848;BME280;22332;51.954;20.118;2022-09-09T07:43:31;99937.40;;;17.00;78.23
35848;BME280;22332;51.954;20.118;2022-09-09T07:46:38;99938.34;;;17.12;78.20
35848;BME280;22332;51.954;20.118;2022-09-09T07:49:45;99943.98;;;17.31;78.07
35848;BME280;22332;51.954;20.118;2022-09-09T07:52:52;99943.46;;;17.43;78.07
35848;BME280;22332;51.954;20.118;2022-09-09T07:56:04;99945.52;;;17.52;78.07
35848;BME280;22332;51.954;20.118;2022-09-09T07:59:10;99942.20;;;17.59;77.96
35848;BME280;22332;51.954;20.118;2022-09-09T08:02:17;99944.18;;;17.64;77.95
35848;BME280;22332;51.954;20.118;2022-09-09T08:05:22;99946.22;;;17.71;78.09
35848;BME280;22332;51.954;20.118;2022-09-09T08:08:29;99953.45;;;17.78;77.99
35848;BME280;22332;51.954;20.118;2022-09-09T08:11:35;99952.86;;;17.91;77.97
35848;BME280;22332;51.954;20.118;2022-09-09T08:14:41;99954.42;;;18.06;77.88
35848;BME280;22332;51.954;20.118;2022-09-09T08:17:47;99954.15;;;18.18;77.71
35848;BME280;22332;51.954;20.118;2022-09-09T08:20:53;99962.23;;;18.28;77.87
35848;BME280;22332;51.954;20.118;2022-09-09T08:24:01;99961.95;;;18.37;78.08
35848;BME280;22332;51.954;20.118;2022-09-09T08:27:06;99964.17;;;18.50;78.01
35848;BME280;22332;51.954;20.118;2022-09-09T08:30:15;99972.55;;;18.60;77.92
35848;BME280;22332;51.954;20.118;2022-09-09T08:33:20;99970.68;;;18.70;77.83
35848;BME280;22332;51.954;20.118;2022-09-09T08:36:28;99971.95;;;18.75;77.53
35848;BME280;22332;51.954;20.118;2022-09-09T08:39:34;99979.52;;;18.75;77.63
35848;BME280;22332;51.954;20.118;2022-09-09T08:42:42;99982.15;;;18.74;77.48
35848;BME280;22332;51.954;20.118;2022-09-09T08:45:57;99982.68;;;18.75;77.49
35848;BME280;22332;51.954;20.118;2022-09-09T08:49:16;99985.70;;;18.72;77.39
35848;BME280;22332;51.954;20.118;2022-09-09T08:52:30;99983.08;;;18.64;77.98
35848;BME280;22332;51.954;20.118;2022-09-09T08:55:43;99984.76;;;18.67;77.90
35848;BME280;22332;51.954;20.118;2022-09-09T08:58:53;99985.96;;;18.76;77.86
35848;BME280;22332;51.954;20.118;2022-09-09T09:02:18;99975.31;;;18.86;77.73
35848;BME280;22332;51.954;20.118;2022-09-09T09:05:31;99981.31;;;18.91;77.45
35848;BME280;22332;51.954;20.118;2022-09-09T09:08:43;99979.09;;;18.99;77.50
35848;BME280;22332;51.954;20.118;2022-09-09T09:11:56;99982.70;;;19.09;77.26
35848;BME280;22332;51.954;20.118;2022-09-09T09:15:14;99984.39;;;19.05;77.14
35848;BME280;22332;51.954;20.118;2022-09-09T09:18:22;99986.16;;;19.06;77.41
35848;BME280;22332;51.954;20.118;2022-09-09T09:21:34;99984.61;;;19.15;77.45
35848;BME280;22332;51.954;20.118;2022-09-09T09:24:49;99977.55;;;19.28;77.53
35848;BME280;22332;51.954;20.118;2022-09-09T09:27:59;99976.73;;;19.40;77.15
35848;BME280;22332;51.954;20.118;2022-09-09T09:31:08;99975.54;;;19.52;76.97
35848;BME280;22332;51.954;20.118;2022-09-09T09:34:15;99981.83;;;19.64;76.78
35848;BME280;22332;51.954;20.118;2022-09-09T09:37:28;99984.18;;;19.80;76.32
35848;BME280;22332;51.954;20.118;2022-09-09T09:40:35;99985.56;;;19.85;75.53
35848;BME280;22332;51.954;20.118;2022-09-09T09:43:41;99991.91;;;19.83;75.76
35848;BME280;22332;51.954;20.118;2022-09-09T09:46:50;99996.66;;;19.94;76.27
35848;BME280;22332;51.954;20.118;2022-09-09T09:49:57;100002.34;;;20.08;75.25
35848;BME280;22332;51.954;20.118;2022-09-09T09:53:05;100007.08;;;20.10;75.40
35848;BME280;22332;51.954;20.118;2022-09-09T09:56:15;100008.62;;;20.09;74.78
35848;BME280;22332;51.954;20.118;2022-09-09T09:59:34;100013.02;;;19.94;74.71
35848;BME280;22332;51.954;20.118;2022-09-09T10:02:42;100011.81;;;19.71;74.40
35848;BME280;22332;51.954;20.118;2022-09-09T10:05:53;100014.05;;;19.62;74.92
35848;BME280;22332;51.954;20.118;2022-09-09T10:09:01;100012.67;;;19.59;75.36
35848;BME280;22332;51.954;20.118;2022-09-09T10:12:13;100014.53;;;19.59;75.48
35848;BME280;22332;51.954;20.118;2022-09-09T10:15:31;100014.75;;;19.52;75.34
35848;BME280;22332;51.954;20.118;2022-09-09T10:18:50;100022.19;;;19.41;75.37
35848;BME280;22332;51.954;20.118;2022-09-09T10:22:18;100023.08;;;19.39;75.56
35848;BME280;22332;51.954;20.118;2022-09-09T10:25:41;100026.48;;;19.31;75.49
35848;BME280;22332;51.954;20.118;2022-09-09T10:29:18;100023.93;;;19.34;75.60
35848;BME280;22332;51.954;20.118;2022-09-09T10:32:36;100020.81;;;19.48;75.83
35848;BME280;22332;51.954;20.118;2022-09-09T10:35:46;100026.33;;;19.53;75.19
35848;BME280;22332;51.954;20.118;2022-09-09T10:39:00;100033.46;;;19.50;75.03
35848;BME280;22332;51.954;20.118;2022-09-09T10:42:12;100040.09;;;19.49;74.87
35848;BME280;22332;51.954;20.118;2022-09-09T10:45:20;100047.77;;;19.44;75.23
35848;BME280;22332;51.954;20.118;2022-09-09T10:48:34;100050.29;;;19.31;75.32
35848;BME280;22332;51.954;20.118;2022-09-09T10:51:53;100051.45;;;19.15;75.43
35848;BME280;22332;51.954;20.118;2022-09-09T10:55:09;100050.05;;;19.20;75.60
35848;BME280;22332;51.954;20.118;2022-09-09T10:58:22;100049.97;;;19.30;75.41
35848;BME280;22332;51.954;20.118;2022-09-09T11:01:32;100045.56;;;19.52;75.66
35848;BME280;22332;51.954;20.118;2022-09-09T11:04:43;100043.41;;;19.75;75.17
35848;BME280;22332;51.954;20.118;2022-09-09T11:07:55;100049.06;;;19.84;74.92
35848;BME280;22332;51.954;20.118;2022-09-09T11:11:04;100052.38;;;19.84;74.61
35848;BME280;22332;51.954;20.118;2022-09-09T11:14:21;100059.92;;;19.68;74.47
35848;BME280;22332;51.954;20.118;2022-09-09T11:17:35;100064.73;;;19.58;74.99
35848;BME280;22332;51.954;20.118;2022-09-09T11:20:42;100065.70;;;19.56;75.21
35848;BME280;22332;51.954;20.118;2022-09-09T11:23:51;100067.01;;;19.60;75.01
35848;BME280;22332;51.954;20.118;2022-09-09T11:27:02;100067.48;;;19.84;75.11
35848;BME280;22332;51.954;20.118;2022-09-09T11:30:17;100068.67;;;20.18;74.83
35848;BME280;22332;51.954;20.118;2022-09-09T11:37:09;100070.29;;;20.20;73.58
35848;BME280;22332;51.954;20.118;2022-09-09T11:40:24;100072.96;;;20.21;74.20
35848;BME280;22332;51.954;20.118;2022-09-09T11:43:32;100069.00;;;20.26;74.17
35848;BME280;22332;51.954;20.118;2022-09-09T11:46:39;100069.95;;;20.25;73.98
35848;BME280;22332;51.954;20.118;2022-09-09T11:49:46;100074.55;;;20.19;74.03
35848;BME280;22332;51.954;20.118;2022-09-09T11:53:16;100074.11;;;20.22;73.84
35848;BME280;22332;51.954;20.118;2022-09-09T11:56:30;100074.34;;;20.29;73.36
35848;BME280;22332;51.954;20.118;2022-09-09T11:59:36;100071.31;;;20.45;73.53
35848;BME280;22332;51.954;20.118;2022-09-09T12:02:49;100064.45;;;20.89;73.61
35848;BME280;22332;51.954;20.118;2022-09-09T12:05:55;100059.75;;;21.19;73.03
35848;BME280;22332;51.954;20.118;2022-09-09T12:09:12;100057.89;;;21.31;72.72
35848;BME280;22332;51.954;20.118;2022-09-09T12:12:27;100053.92;;;21.34;72.77
35848;BME280;22332;51.954;20.118;2022-09-09T12:15:33;100052.67;;;21.37;72.51
35848;BME280;22332;51.954;20.118;2022-09-09T12:18:39;100047.69;;;21.39;71.97
35848;BME280;22332;51.954;20.118;2022-09-09T12:21:51;100050.53;;;21.35;72.17
35848;BME280;22332;51.954;20.118;2022-09-09T12:25:04;100053.02;;;21.21;71.42
35848;BME280;22332;51.954;20.118;2022-09-09T12:28:17;100051.31;;;20.81;71.21
35848;BME280;22332;51.954;20.118;2022-09-09T12:31:27;100048.14;;;20.51;71.91
35848;BME280;22332;51.954;20.118;2022-09-09T12:34:42;100048.08;;;20.37;72.34
35848;BME280;22332;51.954;20.118;2022-09-09T12:37:52;100049.35;;;20.36;72.19
35848;BME280;22332;51.954;20.118;2022-09-09T12:41:01;100046.61;;;20.34;72.19
35848;BME280;22332;51.954;20.118;2022-09-09T12:44:09;100046.56;;;20.26;72.30
35848;BME280;22332;51.954;20.118;2022-09-09T12:47:15;100046.98;;;20.35;72.35
35848;BME280;22332;51.954;20.118;2022-09-09T12:50:23;100040.04;;;20.55;72.06
35848;BME280;22332;51.954;20.118;2022-09-09T12:53:33;100039.00;;;20.70;71.53
35848;BME280;22332;51.954;20.118;2022-09-09T12:56:40;100036.10;;;20.80;71.54
35848;BME280;22332;51.954;20.118;2022-09-09T12:59:50;100045.23;;;20.95;71.47
35848;BME280;22332;51.954;20.118;2022-09-09T13:02:59;100049.86;;;20.98;71.02
35848;BME280;22332;51.954;20.118;2022-09-09T13:06:18;100046.77;;;20.98;71.09
35848;BME280;22332;51.954;20.118;2022-09-09T13:09:26;100041.04;;;20.93;71.06
35848;BME280;22332;51.954;20.118;2022-09-09T13:12:32;100042.33;;;20.85;71.24
35848;BME280;22332;51.954;20.118;2022-09-09T13:15:37;100046.77;;;20.80;71.14
35848;BME280;22332;51.954;20.118;2022-09-09T13:18:43;100043.01;;;20.81;71.07
35848;BME280;22332;51.954;20.118;2022-09-09T13:21:48;100048.70;;;20.75;70.66
35848;BME280;22332;51.954;20.118;2022-09-09T13:25:03;100048.02;;;20.74;70.69
35848;BME280;22332;51.954;20.118;2022-09-09T13:28:22;100037.48;;;20.84;70.81
35848;BME280;22332;51.954;20.118;2022-09-09T13:31:32;100038.53;;;21.00;70.37
35848;BME280;22332;51.954;20.118;2022-09-09T13:34:38;100035.48;;;21.11;70.27
35848;BME280;22332;51.954;20.118;2022-09-09T13:37:44;100036.54;;;21.28;70.10
35848;BME280;22332;51.954;20.118;2022-09-09T13:40:58;100038.11;;;21.41;70.13
35848;BME280;22332;51.954;20.118;2022-09-09T13:44:06;100030.20;;;21.49;69.90
35848;BME280;22332;51.954;20.118;2022-09-09T13:47:20;100024.19;;;21.50;69.69
35848;BME280;22332;51.954;20.118;2022-09-09T13:50:28;100025.83;;;21.45;68.96
35848;BME280;22332;51.954;20.118;2022-09-09T13:53:34;100035.30;;;21.28;69.37
35848;BME280;22332;51.954;20.118;2022-09-09T13:56:41;100032.02;;;21.27;69.53
35848;BME280;22332;51.954;20.118;2022-09-09T13:59:47;100034.57;;;21.27;69.33
35848;BME280;22332;51.954;20.118;2022-09-09T14:02:53;100032.14;;;21.18;69.36
35848;BME280;22332;51.954;20.118;2022-09-09T14:06:00;100027.09;;;21.10;69.30
35848;BME280;22332;51.954;20.118;2022-09-09T14:09:06;100030.48;;;21.03;69.21
35848;BME280;22332;51.954;20.118;2022-09-09T14:12:12;100036.52;;;20.91;68.68
35848;BME280;22332;51.954;20.118;2022-09-09T14:15:18;100041.27;;;20.76;69.25
35848;BME280;22332;51.954;20.118;2022-09-09T14:18:24;100044.96;;;20.66;69.42
35848;BME280;22332;51.954;20.118;2022-09-09T14:21:29;100044.79;;;20.56;69.46
35848;BME280;22332;51.954;20.118;2022-09-09T14:24:35;100044.22;;;20.50;69.61
35848;BME280;22332;51.954;20.118;2022-09-09T14:27:41;100042.17;;;20.46;69.60
35848;BME280;22332;51.954;20.118;2022-09-09T14:30:46;100049.04;;;20.38;69.44
35848;BME280;22332;51.954;20.118;2022-09-09T14:33:52;100050.75;;;20.37;69.46
35848;BME280;22332;51.954;20.118;2022-09-09T14:36:57;100049.31;;;20.40;69.55
35848;BME280;22332;51.954;20.118;2022-09-09T14:40:04;100048.14;;;20.40;69.38
35848;BME280;22332;51.954;20.118;2022-09-09T14:43:12;100048.08;;;20.38;69.46
35848;BME280;22332;51.954;20.118;2022-09-09T14:46:19;100050.80;;;20.33;69.66
35848;BME280;22332;51.954;20.118;2022-09-09T14:49:25;100049.86;;;20.25;69.48
35848;BME280;22332;51.954;20.118;2022-09-09T14:52:32;100044.29;;;20.19;69.66
35848;BME280;22332;51.954;20.118;2022-09-09T14:55:38;100045.98;;;20.14;69.76
35848;BME280;22332;51.954;20.118;2022-09-09T14:58:44;100049.96;;;20.08;69.86
35848;BME280;22332;51.954;20.118;2022-09-09T15:01:49;100054.98;;;19.95;69.84
35848;BME280;22332;51.954;20.118;2022-09-09T15:04:55;100053.98;;;19.83;69.93
35848;BME280;22332;51.954;20.118;2022-09-09T15:08:01;100045.79;;;19.74;69.98
35848;BME280;22332;51.954;20.118;2022-09-09T15:11:07;100040.13;;;19.69;70.19
35848;BME280;22332;51.954;20.118;2022-09-09T15:14:13;100035.84;;;19.70;70.28
35848;BME280;22332;51.954;20.118;2022-09-09T15:17:18;100039.59;;;19.71;70.31
35848;BME280;22332;51.954;20.118;2022-09-09T15:20:24;100040.98;;;19.73;70.33
35848;BME280;22332;51.954;20.118;2022-09-09T15:23:32;100030.86;;;19.76;70.43
35848;BME280;22332;51.954;20.118;2022-09-09T15:26:38;100026.92;;;19.74;70.36
35848;BME280;22332;51.954;20.118;2022-09-09T15:29:43;100027.52;;;19.74;70.51
35848;BME280;22332;51.954;20.118;2022-09-09T15:32:49;100024.10;;;19.71;70.39
35848;BME280;22332;51.954;20.118;2022-09-09T15:35:57;100022.35;;;19.70;70.64
35848;BME280;22332;51.954;20.118;2022-09-09T15:39:03;100029.35;;;19.69;70.58
35848;BME280;22332;51.954;20.118;2022-09-09T15:42:09;100033.25;;;19.65;70.73
35848;BME280;22332;51.954;20.118;2022-09-09T15:45:15;100035.25;;;19.62;70.89
35848;BME280;22332;51.954;20.118;2022-09-09T15:48:20;100039.23;;;19.57;70.81
35848;BME280;22332;51.954;20.118;2022-09-09T15:51:35;100037.17;;;19.50;70.78
35848;BME280;22332;51.954;20.118;2022-09-09T15:54:41;100038.06;;;19.44;70.70
35848;BME280;22332;51.954;20.118;2022-09-09T15:57:47;100039.14;;;19.39;70.81
35848;BME280;22332;51.954;20.118;2022-09-09T16:00:53;100033.23;;;19.37;70.88
35848;BME280;22332;51.954;20.118;2022-09-09T16:03:59;100035.48;;;19.30;70.91
35848;BME280;22332;51.954;20.118;2022-09-09T16:07:06;100038.44;;;19.20;70.98
35848;BME280;22332;51.954;20.118;2022-09-09T16:10:11;100031.64;;;19.14;71.16
35848;BME280;22332;51.954;20.118;2022-09-09T16:13:17;100034.33;;;19.07;71.27
35848;BME280;22332;51.954;20.118;2022-09-09T16:16:25;100034.81;;;19.01;71.45
35848;BME280;22332;51.954;20.118;2022-09-09T16:19:31;100034.58;;;18.96;71.63
35848;BME280;22332;51.954;20.118;2022-09-09T16:22:36;100033.60;;;18.93;71.79
35848;BME280;22332;51.954;20.118;2022-09-09T16:25:42;100032.69;;;18.89;71.83